Time;durP1;ratioP1;P1;durP2;ratioP2;P2;SDS_P1;SDS_P2;PMS_P1;PMS_P2;Temp;Humidity;BMP_temperature;BMP_pressure;BME280_temperature;BME280_humidity;BME280_pressure;Samples;Min_cycle;Max_cycle;Signal;HPM_P1;HPM_P2
2023/11/26 00:01:23;;;;;;;10.40;4.63;;;1.90;99.90;;;;;;7380554;19;20680;-69
2023/11/26 00:03:54;;;;;;;25.48;6.32;;;1.90;99.90;;;;;;7378469;19;20079;-69
2023/11/26 00:06:24;;;;;;;9.82;5.43;;;1.90;99.90;;;;;;7379626;19;20020;-69
2023/11/26 00:08:57;;;;;;;11.13;5.65;;;1.80;99.90;;;;;;7376446;19;20002;-69
2023/11/26 00:11:27;;;;;;;10.18;5.00;;;1.80;99.90;;;;;;7377578;19;20015;-69
2023/11/26 00:13:54;;;;;;;8.18;5.47;;;1.80;99.90;;;;;;7378322;19;20089;-69
2023/11/26 00:16:25;;;;;;;9.93;5.65;;;1.80;99.90;;;;;;7379407;19;20043;-70
2023/11/26 00:18:55;;;;;;;12.02;6.13;;;1.90;99.90;;;;;;7374392;19;20025;-69
2023/11/26 00:21:25;;;;;;;12.32;6.45;;;1.80;99.90;;;;;;7375631;19;20071;-69
2023/11/26 00:23:58;;;;;;;9.77;5.93;;;1.80;99.90;;;;;;7377640;19;20491;-69
2023/11/26 00:26:28;;;;;;;9.82;5.80;;;1.80;99.90;;;;;;7375549;19;20010;-69
2023/11/26 00:29:03;;;;;;;10.48;5.75;;;1.80;99.90;;;;;;7378474;19;20010;-69
2023/11/26 00:31:34;;;;;;;12.88;5.63;;;1.80;99.90;;;;;;7375884;19;20043;-69
2023/11/26 00:34:04;;;;;;;10.13;5.88;;;1.70;99.90;;;;;;7377832;19;20003;-68
2023/11/26 00:36:35;;;;;;;10.80;6.15;;;1.80;99.90;;;;;;7377787;19;20041;-69
2023/11/26 00:39:09;;;;;;;9.93;5.53;;;1.70;99.90;;;;;;7376842;19;20010;-69
2023/11/26 00:41:40;;;;;;;10.93;6.00;;;1.70;99.90;;;;;;7377924;19;20045;-69
2023/11/26 00:44:10;;;;;;;13.35;5.95;;;1.70;99.90;;;;;;7376433;19;20147;-69
2023/11/26 00:46:40;;;;;;;11.20;6.15;;;1.60;99.90;;;;;;7376363;19;20006;-69
2023/11/26 00:49:10;;;;;;;12.02;6.88;;;1.60;99.90;;;;;;7377450;19;20054;-69
2023/11/26 00:51:41;;;;;;;14.95;7.28;;;1.60;99.90;;;;;;7376908;19;20040;-70
2023/11/26 00:54:14;;;;;;;13.48;7.38;;;1.60;99.90;;;;;;7376915;19;20021;-70
2023/11/26 00:56:44;;;;;;;12.65;7.47;;;1.60;99.90;;;;;;7375533;19;20371;-69
2023/11/26 00:59:15;;;;;;;14.52;9.35;;;1.60;99.90;;;;;;7377181;19;20010;-69
2023/11/26 01:01:45;;;;;;;13.40;8.38;;;1.60;99.90;;;;;;7377121;19;20507;-69
2023/11/26 01:04:15;;;;;;;14.13;8.90;;;1.60;99.90;;;;;;7374445;19;20011;-69
2023/11/26 01:06:45;;;;;;;16.67;8.38;;;1.70;99.90;;;;;;7376005;19;20014;-69
2023/11/26 01:09:18;;;;;;;16.70;9.43;;;1.70;99.90;;;;;;7377067;19;20014;-69
2023/11/26 01:11:48;;;;;;;19.15;8.27;;;1.70;99.90;;;;;;7375826;19;20367;-69
2023/11/26 01:14:18;;;;;;;18.45;9.05;;;1.70;99.90;;;;;;7376490;19;20006;-69
2023/11/26 01:16:50;;;;;;;16.58;8.25;;;1.70;99.90;;;;;;7374428;19;20006;-68
2023/11/26 01:19:20;;;;;;;13.02;8.27;;;1.70;99.90;;;;;;7373430;19;20003;-68
2023/11/26 01:21:51;;;;;;;14.93;8.52;;;1.70;99.90;;;;;;7376763;19;20031;-69
2023/11/26 01:24:23;;;;;;;17.67;8.40;;;1.80;99.90;;;;;;7375458;19;20343;-69
2023/11/26 01:26:55;;;;;;;17.77;8.88;;;1.90;99.90;;;;;;7375558;19;20388;-69
2023/11/26 01:29:25;;;;;;;13.07;7.20;;;1.90;99.90;;;;;;7375955;19;20112;-69
2023/11/26 01:31:56;;;;;;;16.75;7.68;;;1.90;99.90;;;;;;7376221;19;20024;-69
2023/11/26 01:34:26;;;;;;;15.20;8.43;;;1.90;99.90;;;;;;7375394;19;20459;-68
2023/11/26 01:36:57;;;;;;;16.75;7.38;;;1.80;99.90;;;;;;7375470;19;20007;-69
2023/11/26 01:39:30;;;;;;;16.55;8.30;;;1.70;99.90;;;;;;7372891;19;20339;-69
2023/11/26 01:42:00;;;;;;;16.27;8.80;;;1.70;99.90;;;;;;7373141;19;20011;-69
2023/11/26 01:44:30;;;;;;;19.15;8.55;;;1.60;99.90;;;;;;7379022;19;20018;-69
2023/11/26 01:47:06;;;;;;;14.55;8.60;;;1.60;99.90;;;;;;7374852;19;20018;-69
2023/11/26 01:49:37;;;;;;;16.40;8.48;;;1.60;99.90;;;;;;7375995;19;20014;-68
2023/11/26 01:52:13;;;;;;;13.23;8.40;;;1.60;99.90;;;;;;7380921;19;20014;-68
2023/11/26 01:54:46;;;;;;;15.43;8.55;;;1.70;99.90;;;;;;7380837;19;20017;-68
2023/11/26 01:57:19;;;;;;;15.63;7.85;;;1.70;99.90;;;;;;7382626;19;20026;-68
2023/11/26 01:59:49;;;;;;;13.88;7.30;;;1.70;99.90;;;;;;7382097;19;20025;-68
2023/11/26 02:02:19;;;;;;;13.73;7.53;;;1.70;99.90;;;;;;7381798;19;20017;-68
2023/11/26 02:04:50;;;;;;;15.25;8.27;;;1.70;99.90;;;;;;7380021;19;20036;-69
2023/11/26 02:07:20;;;;;;;14.07;8.02;;;1.70;99.90;;;;;;7381906;19;20015;-68
2023/11/26 02:09:53;;;;;;;12.82;6.40;;;1.70;99.90;;;;;;7391123;19;20010;-68
2023/11/26 02:12:23;;;;;;;11.57;6.25;;;1.70;99.90;;;;;;7391291;19;20002;-69
2023/11/26 02:14:53;;;;;;;10.88;7.05;;;1.80;99.90;;;;;;7380091;19;20011;-68
2023/11/26 02:17:23;;;;;;;13.88;6.80;;;1.70;99.90;;;;;;7380300;19;20010;-68
2023/11/26 02:19:55;;;;;;;16.67;6.75;;;1.70;99.90;;;;;;7381545;19;20045;-69
2023/11/26 02:22:25;;;;;;;13.68;6.70;;;1.70;99.90;;;;;;7381638;19;20003;-69
2023/11/26 02:24:58;;;;;;;11.98;6.90;;;1.70;99.90;;;;;;7379957;19;20032;-69
2023/11/26 02:27:28;;;;;;;12.52;6.38;;;1.70;99.90;;;;;;7382246;19;20032;-68
2023/11/26 02:29:58;;;;;;;11.77;6.47;;;1.70;99.90;;;;;;7380891;19;20367;-68
2023/11/26 02:32:28;;;;;;;13.98;6.55;;;1.70;99.90;;;;;;7381247;19;20010;-68
2023/11/26 02:34:59;;;;;;;17.77;7.03;;;1.70;99.90;;;;;;7378525;19;20006;-69
2023/11/26 02:37:29;;;;;;;15.68;7.53;;;1.70;99.90;;;;;;7378654;19;20077;-70
2023/11/26 02:40:05;;;;;;;13.40;7.05;;;1.70;99.90;;;;;;7378038;19;20010;-68
2023/11/26 02:42:35;;;;;;;11.25;7.13;;;1.70;99.90;;;;;;7374546;19;20017;-68
2023/11/26 02:45:05;;;;;;;11.52;6.65;;;1.80;99.90;;;;;;7376677;19;20014;-68
2023/11/26 02:47:36;;;;;;;9.73;6.32;;;1.80;99.90;;;;;;7377612;19;20017;-69
2023/11/26 02:50:08;;;;;;;12.60;6.32;;;1.80;99.90;;;;;;7378081;19;20002;-68
2023/11/26 02:52:38;;;;;;;9.23;5.35;;;1.80;99.90;;;;;;7377762;19;20021;-69
2023/11/26 02:55:11;;;;;;;12.85;5.15;;;1.80;99.90;;;;;;7374292;19;20402;-69
2023/11/26 02:57:41;;;;;;;10.40;5.63;;;1.90;99.90;;;;;;7377285;19;20007;-69
2023/11/26 03:00:20;;;;;;;10.45;4.75;;;1.90;99.90;;;;;;7377304;19;20015;-68
2023/11/26 03:02:51;;;;;;;9.70;4.95;;;1.90;99.90;;;;;;7378283;19;20006;-69
2023/11/26 03:05:21;;;;;;;5.85;4.22;;;1.90;99.90;;;;;;7376927;19;20357;-68
2023/11/26 03:08:03;;;;;;;12.13;4.53;;;1.90;99.90;;;;;;7377303;19;20017;-67
2023/11/26 03:13:23;;;;;;;6.53;3.95;;;1.80;99.90;;;;;;6863830;19;2004047;-69
2023/11/26 03:15:53;;;;;;;7.68;4.22;;;1.80;99.90;;;;;;7376393;19;20036;-69
2023/11/26 03:18:24;;;;;;;6.40;3.65;;;1.80;99.90;;;;;;7376855;19;20011;-68
2023/11/26 03:20:56;;;;;;;5.60;3.38;;;1.80;99.90;;;;;;7375467;19;20007;-69
2023/11/26 03:23:26;;;;;;;7.28;3.90;;;1.80;99.90;;;;;;7377073;19;20015;-69
2023/11/26 03:25:58;;;;;;;9.35;3.58;;;1.90;99.90;;;;;;7375922;19;20510;-68
2023/11/26 03:28:29;;;;;;;12.05;5.35;;;1.90;99.90;;;;;;7376756;19;20352;-69
2023/11/26 03:30:59;;;;;;;7.18;4.60;;;1.90;99.90;;;;;;7376663;19;20009;-69
2023/11/26 03:33:29;;;;;;;8.27;5.13;;;1.90;99.90;;;;;;7376219;19;20010;-69
2023/11/26 03:35:59;;;;;;;7.57;4.30;;;1.90;99.90;;;;;;7236770;19;2738444;-69
2023/11/26 03:38:30;;;;;;;6.75;3.85;;;1.90;99.90;;;;;;7378507;19;20406;-69
2023/11/26 03:41:03;;;;;;;11.45;4.63;;;1.90;99.90;;;;;;7379439;19;20015;-68
2023/11/26 03:43:34;;;;;;;7.88;4.18;;;1.90;99.90;;;;;;7378824;19;20018;-69
2023/11/26 03:46:04;;;;;;;9.68;4.32;;;1.90;99.90;;;;;;7377468;19;20370;-69
2023/11/26 03:48:34;;;;;;;10.45;4.82;;;1.90;99.90;;;;;;7378740;19;20014;-69
2023/11/26 03:51:04;;;;;;;11.98;4.97;;;2.00;99.90;;;;;;7380635;19;20028;-69
2023/11/26 03:53:34;;;;;;;10.02;4.45;;;2.00;99.90;;;;;;7379032;19;20033;-68
2023/11/26 03:56:07;;;;;;;7.72;4.35;;;2.00;99.90;;;;;;7378400;19;20039;-69
2023/11/26 03:58:38;;;;;;;8.05;3.95;;;2.00;99.90;;;;;;7377830;19;20552;-69
2023/11/26 04:01:12;;;;;;;5.35;3.80;;;2.00;99.90;;;;;;7377794;19;20352;-69
2023/11/26 04:03:43;;;;;;;9.57;4.07;;;2.00;99.90;;;;;;7378174;19;20382;-69
2023/11/26 04:06:13;;;;;;;7.80;4.00;;;2.00;99.90;;;;;;7375732;19;20011;-68
2023/11/26 04:08:44;;;;;;;6.72;3.30;;;2.00;99.90;;;;;;7378195;19;20089;-69
2023/11/26 04:11:16;;;;;;;10.65;4.22;;;2.00;99.90;;;;;;7378280;19;20006;-69
2023/11/26 04:13:47;;;;;;;10.02;3.92;;;2.10;99.90;;;;;;7378423;19;20018;-68
2023/11/26 04:16:18;;;;;;;10.73;3.47;;;2.10;99.90;;;;;;7375627;19;20011;-68
2023/11/26 04:18:49;;;;;;;5.78;3.60;;;2.10;99.90;;;;;;7377945;19;20078;-68
2023/11/26 04:21:19;;;;;;;5.28;3.47;;;2.10;99.90;;;;;;7376379;19;20050;-68
2023/11/26 04:23:49;;;;;;;5.05;3.35;;;2.10;99.90;;;;;;7377955;19;20393;-68
2023/11/26 04:26:22;;;;;;;5.25;2.80;;;2.10;99.90;;;;;;7376299;19;20052;-69
2023/11/26 04:29:01;;;;;;;5.78;2.83;;;2.10;99.90;;;;;;7377591;19;20359;-70
2023/11/26 04:31:31;;;;;;;8.25;3.00;;;2.10;99.90;;;;;;7377672;19;20018;-69
2023/11/26 04:34:00;;;;;;;7.28;2.75;;;2.10;99.90;;;;;;7377617;19;20424;-69
2023/11/26 04:36:31;;;;;;;4.10;2.63;;;2.00;99.90;;;;;;7377113;19;20003;-68
2023/11/26 04:39:01;;;;;;;6.68;3.05;;;2.10;99.90;;;;;;7377996;19;20359;-69
2023/11/26 04:41:33;;;;;;;8.20;2.97;;;2.00;99.90;;;;;;7378589;19;20003;-68
2023/11/26 04:44:03;;;;;;;5.22;2.80;;;2.00;99.90;;;;;;7391979;19;20046;-68
2023/11/26 04:46:34;;;;;;;6.68;2.97;;;2.00;99.90;;;;;;7384901;19;20019;-69
2023/11/26 04:49:04;;;;;;;6.57;2.97;;;2.00;99.90;;;;;;7375634;19;20031;-68
2023/11/26 04:51:37;;;;;;;5.07;2.75;;;2.00;99.90;;;;;;7376669;19;20014;-69
2023/11/26 04:54:11;;;;;;;5.22;2.78;;;1.90;99.90;;;;;;7376684;19;20374;-69
2023/11/26 04:56:44;;;;;;;5.57;2.67;;;1.90;99.90;;;;;;7371618;19;20010;-69
2023/11/26 04:59:14;;;;;;;5.63;2.83;;;1.80;99.90;;;;;;7375016;19;20013;-69
2023/11/26 05:01:48;;;;;;;6.25;3.10;;;1.80;99.90;;;;;;7373608;19;20506;-68
2023/11/26 05:04:19;;;;;;;5.63;2.75;;;1.80;99.90;;;;;;7374087;19;20031;-68
2023/11/26 05:06:49;;;;;;;6.65;3.00;;;1.80;99.90;;;;;;7374619;19;20484;-69
2023/11/26 05:09:20;;;;;;;5.45;3.20;;;1.80;99.90;;;;;;7374931;19;20002;-69
2023/11/26 05:11:53;;;;;;;5.38;2.92;;;1.90;99.90;;;;;;7374316;19;20019;-69
2023/11/26 05:14:23;;;;;;;6.38;3.08;;;1.90;99.90;;;;;;7374281;19;20386;-69
2023/11/26 05:16:53;;;;;;;6.65;3.03;;;2.00;99.90;;;;;;7371502;19;20037;-68
2023/11/26 05:19:23;;;;;;;7.22;2.88;;;2.00;99.90;;;;;;7374652;19;20018;-69
2023/11/26 05:21:53;;;;;;;4.65;2.45;;;2.00;99.90;;;;;;7373259;19;20006;-69
2023/11/26 05:24:23;;;;;;;6.90;2.92;;;2.00;99.90;;;;;;7373381;19;20018;-68
2023/11/26 05:26:56;;;;;;;7.43;2.83;;;2.00;99.90;;;;;;7372468;19;20515;-69
2023/11/26 05:29:27;;;;;;;4.22;1.98;;;2.00;99.90;;;;;;7372220;19;20503;-69
2023/11/26 05:31:57;;;;;;;4.00;2.83;;;2.00;99.90;;;;;;7375143;19;20014;-69
2023/11/26 05:34:27;;;;;;;5.32;2.03;;;2.00;99.90;;;;;;7372677;19;20114;-69
2023/11/26 05:36:57;;;;;;;6.45;2.03;;;2.10;99.90;;;;;;7373098;19;20018;-68
2023/11/26 05:39:27;;;;;;;2.28;1.60;;;2.10;99.90;;;;;;7373108;19;20032;-69
2023/11/26 05:42:00;;;;;;;5.55;1.77;;;2.10;99.90;;;;;;7372979;19;20399;-69
2023/11/26 05:44:30;;;;;;;3.28;1.63;;;2.10;99.90;;;;;;7373531;19;20082;-68
2023/11/26 05:47:00;;;;;;;4.68;1.52;;;2.10;99.90;;;;;;7370298;19;20015;-68
2023/11/26 05:49:30;;;;;;;3.60;1.50;;;2.10;99.90;;;;;;7373313;19;20517;-69
2023/11/26 05:52:00;;;;;;;7.72;2.22;;;2.10;99.90;;;;;;7372361;19;20018;-69
2023/11/26 05:54:30;;;;;;;2.90;1.58;;;2.10;99.90;;;;;;7371971;19;20394;-69
2023/11/26 05:57:03;;;;;;;5.72;1.52;;;2.20;99.90;;;;;;7369666;19;20014;-69
2023/11/26 05:59:33;;;;;;;7.68;3.08;;;2.10;99.90;;;;;;7373013;19;20027;-69
2023/11/26 06:02:03;;;;;;;2.80;1.48;;;2.20;99.90;;;;;;7372905;19;20054;-68
2023/11/26 06:04:33;;;;;;;3.92;1.50;;;2.20;98.10;;;;;;7372088;19;20065;-68
2023/11/26 06:07:03;;;;;;;3.42;1.42;;;2.20;93.10;;;;;;7370982;19;20022;-69
2023/11/26 06:09:33;;;;;;;2.28;1.50;;;2.20;82.70;;;;;;7372459;19;20656;-69
2023/11/26 06:12:07;;;;;;;2.10;1.23;;;2.20;68.90;;;;;;7372292;19;20011;-70
2023/11/26 06:14:37;;;;;;;3.83;0.98;;;2.20;64.40;;;;;;7373217;19;20122;-70
2023/11/26 06:17:07;;;;;;;3.97;1.40;;;2.20;55.60;;;;;;7371684;19;20496;-70
2023/11/26 06:19:39;;;;;;;3.67;1.48;;;2.20;53.80;;;;;;7372909;19;20015;-70
2023/11/26 06:22:09;;;;;;;5.30;1.40;;;2.20;53.40;;;;;;7374529;19;20392;-70
2023/11/26 06:24:39;;;;;;;5.47;1.23;;;2.20;51.70;;;;;;7374388;19;20017;-70
2023/11/26 06:27:12;;;;;;;4.47;1.30;;;2.20;47.50;;;;;;7373617;19;20031;-69
2023/11/26 06:29:42;;;;;;;3.08;1.88;;;2.20;48.80;;;;;;7378318;19;20003;-68
2023/11/26 06:32:12;;;;;;;5.80;1.42;;;2.20;48.10;;;;;;7380036;19;20019;-69
2023/11/26 06:34:42;;;;;;;4.53;1.33;;;2.20;46.30;;;;;;7380945;19;20007;-70
2023/11/26 06:37:12;;;;;;;2.42;1.25;;;2.20;46.40;;;;;;7381120;19;20014;-69
2023/11/26 06:39:43;;;;;;;2.45;1.20;;;2.30;42.40;;;;;;7379818;19;20103;-69
2023/11/26 06:42:18;;;;;;;1.65;1.42;;;2.30;43.30;;;;;;7376414;19;20010;-69
2023/11/26 06:44:50;;;;;;;2.30;1.10;;;2.40;45.00;;;;;;7379186;19;20006;-69
2023/11/26 06:47:20;;;;;;;5.07;1.92;;;2.40;45.90;;;;;;7379113;19;20018;-69
2023/11/26 06:49:50;;;;;;;3.08;1.73;;;2.40;45.00;;;;;;7380102;19;20010;-69
2023/11/26 06:52:20;;;;;;;5.78;1.83;;;2.40;46.70;;;;;;7379223;19;20036;-70
2023/11/26 06:54:50;;;;;;;3.00;1.60;;;2.40;52.50;;;;;;7377301;19;20018;-70
2023/11/26 06:57:22;;;;;;;6.18;2.30;;;2.50;54.50;;;;;;7378896;19;20006;-69
2023/11/26 06:59:52;;;;;;;5.47;2.97;;;2.60;57.90;;;;;;7380506;19;20512;-69
2023/11/26 07:02:23;;;;;;;6.47;2.80;;;2.60;64.40;;;;;;7379098;19;20610;-69
2023/11/26 07:04:53;;;;;;;6.22;2.45;;;2.50;69.40;;;;;;7377136;19;20010;-70
2023/11/26 07:07:23;;;;;;;5.22;2.72;;;2.60;78.40;;;;;;7379399;19;20014;-69
2023/11/26 07:09:53;;;;;;;3.42;2.42;;;2.60;82.80;;;;;;7380169;19;20007;-69
2023/11/26 07:12:29;;;;;;;4.00;2.25;;;2.50;92.60;;;;;;7379353;19;20014;-69
2023/11/26 07:14:59;;;;;;;5.65;2.78;;;2.40;95.90;;;;;;7380325;19;20011;-69
2023/11/26 07:17:31;;;;;;;3.00;1.90;;;2.50;97.40;;;;;;7388235;19;20084;-69
2023/11/26 07:20:01;;;;;;;5.07;2.17;;;2.50;99.90;;;;;;7384903;19;20497;-69
2023/11/26 07:22:31;;;;;;;3.10;2.15;;;2.40;99.90;;;;;;7379441;19;20070;-68
2023/11/26 07:25:01;;;;;;;5.47;2.58;;;2.50;99.90;;;;;;7378430;19;20044;-69
2023/11/26 07:27:33;;;;;;;4.50;3.00;;;2.50;99.90;;;;;;7378879;19;20106;-69
2023/11/26 07:30:04;;;;;;;6.03;3.47;;;2.50;99.90;;;;;;7377855;19;20007;-68
2023/11/26 07:32:35;;;;;;;6.03;3.95;;;2.60;99.90;;;;;;7377811;19;20015;-71
2023/11/26 07:35:05;;;;;;;5.95;3.63;;;2.70;99.90;;;;;;7378077;19;20014;-69
2023/11/26 07:37:35;;;;;;;9.30;4.65;;;2.70;99.90;;;;;;7378445;19;20578;-69
2023/11/26 07:40:07;;;;;;;7.88;4.43;;;2.80;99.90;;;;;;7374097;19;20015;-69
2023/11/26 07:42:41;;;;;;;10.50;4.90;;;2.80;99.90;;;;;;7376089;19;20114;-69
2023/11/26 07:45:12;;;;;;;10.10;4.68;;;2.80;99.90;;;;;;7376677;19;20093;-69
2023/11/26 07:47:42;;;;;;;7.47;4.32;;;2.80;99.90;;;;;;7377149;19;20040;-70
2023/11/26 07:50:12;;;;;;;7.75;4.28;;;2.90;99.90;;;;;;7377884;19;20506;-69
2023/11/26 07:52:42;;;;;;;10.70;4.35;;;2.90;99.90;;;;;;7376134;19;20006;-70
2023/11/26 07:55:12;;;;;;;8.00;4.40;;;2.90;99.90;;;;;;7373454;19;20035;-69
2023/11/26 07:57:45;;;;;;;7.70;5.30;;;3.00;99.90;;;;;;7374945;19;20363;-69
2023/11/26 08:00:17;;;;;;;14.38;5.63;;;3.00;99.90;;;;;;7377933;19;20465;-69
2023/11/26 08:02:47;;;;;;;10.40;5.80;;;3.00;99.90;;;;;;7377146;19;20039;-69
2023/11/26 08:05:19;;;;;;;13.27;5.38;;;3.10;99.90;;;;;;7377670;19;20018;-70
2023/11/26 08:07:51;;;;;;;11.85;5.72;;;3.10;99.90;;;;;;7378040;19;20035;-70
2023/11/26 08:10:26;;;;;;;10.38;6.18;;;3.10;99.90;;;;;;7375307;19;20097;-70
2023/11/26 08:12:59;;;;;;;9.88;5.47;;;3.10;99.90;;;;;;7376758;19;20021;-70
2023/11/26 08:15:29;;;;;;;9.20;5.80;;;3.20;99.90;;;;;;7374433;19;20019;-69
2023/11/26 08:17:59;;;;;;;10.18;5.78;;;3.30;99.90;;;;;;7376669;19;20018;-70
2023/11/26 08:20:29;;;;;;;10.60;6.00;;;3.30;99.90;;;;;;7375600;19;20015;-70
2023/11/26 08:23:01;;;;;;;9.75;6.40;;;3.30;99.90;;;;;;7376354;19;20002;-69
2023/11/26 08:25:33;;;;;;;10.70;6.47;;;3.30;99.90;;;;;;7375418;19;20121;-70
2023/11/26 08:28:07;;;;;;;12.43;6.55;;;3.40;99.90;;;;;;7376101;19;20007;-69
2023/11/26 08:30:44;;;;;;;11.13;6.65;;;3.40;99.90;;;;;;7375030;19;20107;-68
2023/11/26 08:33:17;;;;;;;9.65;7.07;;;3.50;99.90;;;;;;7375913;19;20080;-69
2023/11/26 08:35:50;;;;;;;15.38;7.75;;;3.50;99.90;;;;;;7376023;19;20006;-70
2023/11/26 08:38:23;;;;;;;14.38;7.07;;;3.60;99.90;;;;;;7374662;19;20398;-70
2023/11/26 08:40:54;;;;;;;13.73;7.85;;;3.70;99.90;;;;;;7375276;19;20006;-69
2023/11/26 08:43:27;;;;;;;17.50;8.15;;;3.70;99.90;;;;;;7375608;19;20014;-69
2023/11/26 08:46:01;;;;;;;13.70;8.23;;;3.70;97.40;;;;;;7374989;19;20552;-69
2023/11/26 08:48:31;;;;;;;11.45;7.32;;;3.80;89.40;;;;;;7376542;19;20011;-69
2023/11/26 08:51:01;;;;;;;16.75;7.45;;;3.90;90.20;;;;;;7375300;19;20082;-69
2023/11/26 08:53:32;;;;;;;12.77;8.35;;;3.90;80.40;;;;;;7373601;19;20030;-69
2023/11/26 08:56:03;;;;;;;10.88;6.80;;;3.90;64.10;;;;;;7374729;19;20677;-69
2023/11/26 08:58:35;;;;;;;15.40;7.40;;;3.90;57.10;;;;;;7375450;19;20039;-69
2023/11/26 09:01:06;;;;;;;12.55;7.57;;;4.00;64.40;;;;;;7375062;19;20063;-69
2023/11/26 09:03:36;;;;;;;11.13;7.05;;;4.00;58.70;;;;;;7373913;19;20006;-69
2023/11/26 09:06:07;;;;;;;12.93;7.07;;;4.00;59.60;;;;;;7373210;19;20022;-69
2023/11/26 09:08:38;;;;;;;12.57;7.05;;;4.10;64.70;;;;;;7374019;19;20010;-69
2023/11/26 09:11:08;;;;;;;13.40;7.70;;;4.10;59.90;;;;;;7373241;19;20376;-69
2023/11/26 09:13:40;;;;;;;13.25;6.95;;;4.00;49.90;;;;;;7374745;19;20031;-69
2023/11/26 09:16:11;;;;;;;13.70;8.20;;;4.00;47.80;;;;;;7373318;19;20013;-70
2023/11/26 09:18:41;;;;;;;11.50;7.70;;;4.10;49.50;;;;;;7374463;19;20029;-69
2023/11/26 09:21:12;;;;;;;8.82;6.85;;;4.20;54.50;;;;;;7374069;19;20401;-68
2023/11/26 09:23:45;;;;;;;12.73;8.25;;;4.20;50.00;;;;;;7373522;19;20447;-68
2023/11/26 09:26:15;;;;;;;13.20;8.20;;;4.30;36.90;;;;;;7373199;19;20166;-69
2023/11/26 09:28:48;;;;;;;12.93;8.05;;;4.40;37.80;;;;;;7375027;19;20609;-69
2023/11/26 09:31:27;;;;;;;11.90;7.20;;;4.40;24.00;;;;;;7347733;19;20028;-69
2023/11/26 09:33:59;;;;;;;11.60;7.07;;;4.50;22.70;;;;;;7374417;19;20399;-69
2023/11/26 09:36:29;;;;;;;10.52;6.90;;;4.40;13.50;;;;;;7373476;19;20014;-68
2023/11/26 09:38:59;;;;;;;12.95;7.53;;;4.50;21.20;;;;;;7372877;19;20014;-69
2023/11/26 09:41:30;;;;;;;10.75;6.03;;;4.50;19.10;;;;;;7374110;19;20011;-69
2023/11/26 09:44:03;;;;;;;13.68;7.00;;;4.50;9.20;;;;;;7373596;19;20185;-69
2023/11/26 09:46:35;;;;;;;16.55;7.20;;;4.60;13.10;;;;;;7372845;19;20475;-70
2023/11/26 09:49:05;;;;;;;10.88;6.28;;;4.60;9.30;;;;;;7385952;19;20003;-69
2023/11/26 09:51:38;;;;;;;11.52;6.30;;;4.60;12.50;;;;;;7387200;19;20043;-70
2023/11/26 09:54:10;;;;;;;12.18;6.25;;;4.60;7.20;;;;;;7372644;19;20037;-69
2023/11/26 09:56:40;;;;;;;10.30;5.75;;;4.50;7.40;;;;;;7372740;19;20428;-69
2023/11/26 09:59:26;;;;;;;17.55;6.25;;;4.40;8.00;;;;;;7373529;19;20010;-69
2023/11/26 10:01:56;;;;;;;8.05;4.80;;;4.40;11.60;;;;;;7369312;19;20020;-69
2023/11/26 10:04:28;;;;;;;9.85;4.82;;;4.40;3.70;;;;;;7375022;19;20039;-69
2023/11/26 10:06:58;;;;;;;9.60;5.32;;;4.30;1.00;;;;;;7379890;19;20010;-68
2023/11/26 10:09:28;;;;;;;9.65;5.28;;;4.40;1.50;;;;;;7378843;19;20015;-69
2023/11/26 10:12:00;;;;;;;11.35;5.75;;;4.40;1.00;;;;;;7379982;19;20021;-71
2023/11/26 10:14:33;;;;;;;13.48;5.70;;;4.40;1.00;;;;;;7378675;19;20018;-70
2023/11/26 10:17:11;;;;;;;8.63;5.63;;;4.50;3.50;;;;;;7379688;19;20027;-70
2023/11/26 10:19:42;;;;;;;10.98;6.38;;;4.60;2.70;;;;;;7380053;19;20011;-70
2023/11/26 10:22:12;;;;;;;9.80;7.07;;;4.50;1.00;;;;;;7379937;19;20022;-69
2023/11/26 10:24:42;;;;;;;9.65;5.70;;;4.60;1.00;;;;;;7379503;19;20010;-70
2023/11/26 10:27:16;;;;;;;9.77;5.95;;;4.70;1.00;;;;;;7378803;19;20011;-69
2023/11/26 10:29:48;;;;;;;9.82;5.75;;;4.70;1.00;;;;;;7378660;19;20034;-69
2023/11/26 10:32:18;;;;;;;12.75;6.20;;;4.80;1.00;;;;;;7380111;19;20015;-69
2023/11/26 10:34:57;;;;;;;8.75;5.82;;;4.80;1.00;;;;;;7377610;19;20020;-69
2023/11/26 10:37:27;;;;;;;10.60;5.72;;;5.00;1.00;;;;;;7377281;19;20086;-69
2023/11/26 10:39:58;;;;;;;8.65;5.22;;;5.10;1.00;;;;;;7379370;19;20019;-69
2023/11/26 10:42:31;;;;;;;14.32;7.05;;;4.90;1.00;;;;;;7379866;19;20031;-69
2023/11/26 10:45:07;;;;;;;12.07;7.03;;;4.80;1.00;;;;;;7377866;19;20024;-69
2023/11/26 10:47:41;;;;;;;19.95;10.88;;;5.10;1.00;;;;;;7378781;19;20006;-69
2023/11/26 10:50:13;;;;;;;10.70;7.68;;;5.20;1.00;;;;;;7378680;19;20010;-69
2023/11/26 10:52:48;;;;;;;10.63;5.82;;;5.30;1.00;;;;;;7378179;19;20010;-68
2023/11/26 10:55:24;;;;;;;11.60;6.35;;;5.30;1.00;;;;;;7376829;19;20023;-69
2023/11/26 10:57:57;;;;;;;7.18;5.25;;;5.20;1.00;;;;;;7380633;19;20368;-69
2023/11/26 11:00:32;;;;;;;12.57;5.95;;;5.10;1.00;;;;;;7379111;19;20030;-69
2023/11/26 11:03:05;;;;;;;8.90;5.00;;;4.90;1.00;;;;;;7376427;19;20666;-69
2023/11/26 11:05:35;;;;;;;12.52;5.97;;;5.00;1.00;;;;;;7376406;19;20037;-69
2023/11/26 11:08:06;;;;;;;8.38;5.18;;;4.90;1.00;;;;;;7377670;19;20470;-68
2023/11/26 11:10:44;;;;;;;6.40;4.20;;;5.00;1.00;;;;;;7378429;19;20147;-70
2023/11/26 11:13:19;;;;;;;9.60;4.25;;;4.90;1.00;;;;;;7378845;19;20581;-69
2023/11/26 11:15:52;;;;;;;9.50;4.03;;;5.00;1.00;;;;;;7377014;19;20007;-70
2023/11/26 11:18:40;;;;;;;7.30;4.22;;;5.10;1.00;;;;;;7379110;19;20137;-69
2023/11/26 11:21:12;;;;;;;7.72;4.57;;;5.20;1.00;;;;;;6867053;19;2004681;-69
2023/11/26 11:23:45;;;;;;;9.90;3.67;;;5.30;1.00;;;;;;7376838;19;20093;-69
2023/11/26 11:26:16;;;;;;;6.65;3.85;;;5.20;1.00;;;;;;7376709;19;20021;-69
2023/11/26 11:28:47;;;;;;;9.35;4.22;;;5.30;1.00;;;;;;7372891;19;20490;-70
2023/11/26 11:31:22;;;;;;;7.18;4.13;;;5.30;1.00;;;;;;7374566;19;20021;-69
2023/11/26 11:34:20;;;;;;;8.75;4.57;;;5.30;1.00;;;;;;7374895;19;20360;-68
2023/11/26 11:36:55;;;;;;;9.75;4.20;;;5.40;1.00;;;;;;6869361;19;2004218;-68
2023/11/26 11:39:29;;;;;;;14.38;4.60;;;5.30;1.00;;;;;;7381700;19;20045;-69
2023/11/26 11:42:20;;;;;;;8.52;3.45;;;5.20;1.00;;;;;;7382251;19;20729;-69
2023/11/26 11:44:51;;;;;;;8.40;3.90;;;5.10;1.00;;;;;;6868517;19;2004036;-69
2023/11/26 11:47:45;;;;;;;7.35;3.63;;;5.30;1.00;;;;;;7379590;19;20011;-69
2023/11/26 11:50:16;;;;;;;8.23;3.43;;;5.30;1.00;;;;;;6868735;19;2004718;-70
2023/11/26 11:52:55;;;;;;;10.25;4.18;;;5.30;1.00;;;;;;7379081;19;20025;-70
2023/11/26 11:55:36;;;;;;;8.27;3.50;;;5.50;1.00;;;;;;7378543;19;20002;-69
2023/11/26 11:58:16;;;;;;;5.97;3.65;;;5.50;1.00;;;;;;7378138;19;20029;-68
2023/11/26 12:00:48;;;;;;;9.95;3.42;;;5.60;1.00;;;;;;7379925;19;20010;-69
2023/11/26 12:03:21;;;;;;;6.50;3.55;;;5.40;1.00;;;;;;7378486;19;20011;-69
2023/11/26 12:05:51;;;;;;;6.65;3.33;;;5.70;1.00;;;;;;7378800;19;20011;-69
2023/11/26 12:08:22;;;;;;;6.57;3.10;;;5.80;1.00;;;;;;7377351;19;20009;-70
2023/11/26 12:10:52;;;;;;;6.22;2.72;;;5.90;1.00;;;;;;7379370;19;20420;-68
2023/11/26 12:13:22;;;;;;;7.07;3.28;;;6.00;1.00;;;;;;7379575;19;20339;-70
2023/11/26 12:15:57;;;;;;;5.63;2.75;;;5.90;1.00;;;;;;7377763;19;20014;-70
2023/11/26 12:18:30;;;;;;;7.15;3.40;;;6.10;1.00;;;;;;7378541;19;20808;-70
2023/11/26 12:21:00;;;;;;;8.38;2.85;;;5.90;1.00;;;;;;7392797;19;20012;-68
2023/11/26 12:23:35;;;;;;;5.63;3.05;;;5.90;1.00;;;;;;7396998;19;20014;-68
2023/11/26 12:26:07;;;;;;;5.28;2.97;;;6.00;1.00;;;;;;7372720;19;20507;-70
2023/11/26 12:28:44;;;;;;;4.88;2.53;;;6.00;1.00;;;;;;7377350;19;20009;-70
2023/11/26 12:31:15;;;;;;;9.93;3.40;;;6.00;1.00;;;;;;7378403;19;20052;-70
2023/11/26 12:33:48;;;;;;;4.53;2.50;;;6.00;1.00;;;;;;7376933;19;20014;-69
2023/11/26 12:36:18;;;;;;;5.63;2.95;;;6.00;1.00;;;;;;7377344;19;20761;-70
2023/11/26 12:38:49;;;;;;;8.90;2.75;;;6.00;1.00;;;;;;7377212;19;20011;-69
2023/11/26 12:41:19;;;;;;;9.88;3.17;;;6.00;1.00;;;;;;7377974;19;20039;-70
2023/11/26 12:43:49;;;;;;;4.70;2.65;;;6.00;1.00;;;;;;7377555;19;20026;-69
2023/11/26 12:46:21;;;;;;;5.65;3.72;;;5.80;1.00;;;;;;7377229;19;20082;-72
2023/11/26 12:48:54;;;;;;;4.25;2.70;;;6.00;1.00;;;;;;7379907;19;20010;-70
2023/11/26 12:51:25;;;;;;;7.63;2.97;;;5.80;1.00;;;;;;7376980;19;20026;-70
2023/11/26 12:53:55;;;;;;;8.10;2.88;;;5.90;1.00;;;;;;7378867;19;20039;-69
2023/11/26 12:56:25;;;;;;;7.55;2.70;;;5.90;1.00;;;;;;7378007;19;20010;-69
2023/11/26 12:59:02;;;;;;;4.60;2.95;;;5.90;1.00;;;;;;7378276;19;20006;-70
2023/11/26 13:01:34;;;;;;;6.70;2.78;;;6.00;1.00;;;;;;7378835;19;20473;-69
2023/11/26 13:04:08;;;;;;;8.98;2.88;;;5.90;1.00;;;;;;7374853;19;20345;-70
2023/11/26 13:06:55;;;;;;;5.38;2.28;;;5.70;1.00;;;;;;7377496;19;20014;-70
2023/11/26 13:09:25;;;;;;;3.83;2.00;;;5.40;1.00;;;;;;7378124;19;20026;-69
2023/11/26 13:12:04;;;;;;;6.03;2.85;;;5.40;1.00;;;;;;7378940;19;20450;-69
2023/11/26 13:14:41;;;;;;;5.85;2.38;;;5.40;1.00;;;;;;7380515;19;20006;-69
2023/11/26 13:17:13;;;;;;;7.55;3.47;;;5.30;1.00;;;;;;7376880;19;20469;-70
2023/11/26 13:19:47;;;;;;;7.95;3.35;;;5.10;1.00;;;;;;7378043;19;20012;-70
2023/11/26 13:22:17;;;;;;;7.18;3.58;;;5.20;1.00;;;;;;7378612;19;20007;-70